Time;durP1;ratioP1;P1;durP2;ratioP2;P2;SDS_P1;SDS_P2;PMS_P1;PMS_P2;Temp;Humidity;BMP_temperature;BMP_pressure;BME280_temperature;BME280_humidity;BME280_pressure;Samples;Min_cycle;Max_cycle;Signal;HPM_P1;HPM_P2
2023/07/01 00:00:34;;;;;;;9.48;6.25;;;;;;;;;;2117794;28;20053;-88
2023/07/01 00:01:34;;;;;;;7.63;6.82;;;;;;;;;;2123098;27;20027;-89
2023/07/01 00:02:36;;;;;;;7.57;6.75;;;;;;;;;;2122614;27;20478;-90
2023/07/01 00:03:37;;;;;;;7.50;6.70;;;;;;;;;;2122532;27;20565;-90
2023/07/01 00:04:37;;;;;;;7.43;6.63;;;;;;;;;;2122428;27;20122;-90
2023/07/01 00:05:38;;;;;;;6.82;6.10;;;;;;;;;;1752681;27;10443882;-90
2023/07/01 00:06:41;;;;;;;7.60;6.75;;;;;;;;;;2122586;27;20065;-90
2023/07/01 00:07:41;;;;;;;7.53;6.78;;;;;;;;;;2122691;27;20040;-90
2023/07/01 00:08:44;;;;;;;7.18;6.47;;;;;;;;;;2123374;27;20031;-91
2023/07/01 00:09:44;;;;;;;7.43;6.72;;;;;;;;;;2122759;27;20027;-89
2023/07/01 00:10:45;;;;;;;7.57;6.47;;;;;;;;;;2105895;28;20475;-89
2023/07/01 00:11:45;;;;;;;8.57;6.80;;;;;;;;;;2105724;28;20217;-90
2023/07/01 00:12:46;;;;;;;7.47;6.70;;;;;;;;;;2105158;28;20074;-90
2023/07/01 00:13:47;;;;;;;8.18;6.53;;;;;;;;;;2113758;28;20061;-89
2023/07/01 00:14:47;;;;;;;7.57;6.80;;;;;;;;;;2113944;28;20086;-90
2023/07/01 00:15:48;;;;;;;9.02;6.88;;;;;;;;;;2114028;28;20042;-90
2023/07/01 00:16:48;;;;;;;7.43;6.72;;;;;;;;;;2114503;28;20110;-90
2023/07/01 00:17:49;;;;;;;9.32;7.07;;;;;;;;;;2114432;28;20049;-90
2023/07/01 00:18:49;;;;;;;8.27;6.78;;;;;;;;;;2114184;28;20043;-90
2023/07/01 00:19:50;;;;;;;7.68;6.88;;;;;;;;;;2105679;28;20020;-92
2023/07/01 00:20:51;;;;;;;8.30;6.57;;;;;;;;;;2114502;28;20114;-91
2023/07/01 00:21:51;;;;;;;8.35;7.43;;;;;;;;;;2106162;28;20051;-90
2023/07/01 00:22:51;;;;;;;7.25;6.55;;;;;;;;;;2105846;28;20498;-90
2023/07/01 00:23:52;;;;;;;8.77;6.65;;;;;;;;;;2106001;28;20016;-90
2023/07/01 00:24:52;;;;;;;7.50;6.72;;;;;;;;;;2105910;28;20024;-90
2023/07/01 00:26:21;;;;;;;6.88;6.18;;;;;;;;;;2121688;27;20055;-91
2023/07/01 00:27:21;;;;;;;7.95;6.30;;;;;;;;;;2119747;27;20035;-90
2023/07/01 00:28:22;;;;;;;7.45;6.75;;;;;;;;;;2122988;27;20023;-90
2023/07/01 00:29:22;;;;;;;8.00;7.20;;;;;;;;;;2122011;27;20015;-89
2023/07/01 00:30:23;;;;;;;7.97;7.18;;;;;;;;;;2111673;28;20026;-91
2023/07/01 00:33:05;;;;;;;;;;;;;;;;;;;;;
2023/07/01 00:34:53;;;;;;;8.45;7.55;;;;;;;;;;2114598;27;20110;-90
2023/07/01 00:35:54;;;;;;;8.10;7.28;;;;;;;;;;2114774;28;20434;-89
2023/07/01 00:36:54;;;;;;;7.43;6.72;;;;;;;;;;2114844;28;20037;-92
2023/07/01 00:37:55;;;;;;;8.80;6.57;;;;;;;;;;2114311;28;20642;-91
2023/07/01 00:38:55;;;;;;;7.35;6.60;;;;;;;;;;2105857;28;20051;-91
2023/07/01 00:39:56;;;;;;;7.38;6.65;;;;;;;;;;2105677;28;20024;-91
2023/07/01 00:40:56;;;;;;;7.57;6.88;;;;;;;;;;2105662;28;20024;-90
2023/07/01 00:41:57;;;;;;;7.10;6.40;;;;;;;;;;2105581;28;20065;-90
2023/07/01 00:42:57;;;;;;;8.00;7.22;;;;;;;;;;2113645;28;20133;-91
2023/07/01 00:44:03;;;;;;;8.25;7.25;;;;;;;;;;1855163;28;10096604;-89
2023/07/01 00:45:04;;;;;;;8.25;6.68;;;;;;;;;;2122117;27;20777;-90
2023/07/01 00:46:05;;;;;;;7.15;6.40;;;;;;;;;;2122325;27;20019;-90
2023/07/01 00:47:06;;;;;;;8.13;6.72;;;;;;;;;;2114044;28;20487;-90
2023/07/01 00:48:06;;;;;;;9.40;7.40;;;;;;;;;;2123517;27;20015;-89
2023/07/01 00:49:07;;;;;;;9.13;7.25;;;;;;;;;;2116953;28;20450;-90
2023/07/01 00:50:13;;;;;;;7.88;6.63;;;;;;;;;;2114313;28;20042;-91
2023/07/01 00:51:13;;;;;;;8.52;7.10;;;;;;;;;;2113959;28;20059;-90
2023/07/01 00:52:14;;;;;;;7.40;6.70;;;;;;;;;;2105051;28;20028;-89
2023/07/01 00:53:16;;;;;;;7.05;6.35;;;;;;;;;;2113839;28;20408;-90
2023/07/01 00:54:16;;;;;;;7.68;6.97;;;;;;;;;;2113632;28;20082;-90
2023/07/01 00:55:17;;;;;;;8.95;7.25;;;;;;;;;;2104998;28;20098;-90
2023/07/01 00:56:17;;;;;;;7.10;6.30;;;;;;;;;;2114242;27;20020;-89
2023/07/01 00:57:17;;;;;;;7.40;6.70;;;;;;;;;;2122718;27;20106;-90
2023/07/01 00:58:18;;;;;;;7.97;7.10;;;;;;;;;;2116514;27;20044;-90
2023/07/01 00:59:18;;;;;;;8.00;6.85;;;;;;;;;;2105092;28;20032;-90
2023/07/01 01:00:19;;;;;;;7.30;6.47;;;;;;;;;;2113909;28;20153;-89
2023/07/01 01:01:26;;;;;;;7.75;7.03;;;;;;;;;;2114415;28;20027;-90
2023/07/01 01:02:33;;;;;;;8.02;7.22;;;;;;;;;;2113584;28;20034;-90
2023/07/01 01:05:48;;;;;;;6.88;6.18;;;;;;;;;;2114283;28;20103;-90
2023/07/01 01:07:00;;;;;;;10.52;7.20;;;;;;;;;;2113619;28;20032;-90
2023/07/01 01:08:20;;;;;;;9.00;7.38;;;;;;;;;;2113898;28;20418;-90
2023/07/01 01:09:59;;;;;;;7.78;6.97;;;;;;;;;;2114958;28;20011;-90
2023/07/01 01:11:02;;;;;;;8.55;7.15;;;;;;;;;;2114622;28;20019;-90
2023/07/01 01:12:09;;;;;;;9.00;7.28;;;;;;;;;;2115274;28;20023;-91
2023/07/01 01:13:10;;;;;;;7.50;6.70;;;;;;;;;;2118217;27;20023;-90
2023/07/01 01:14:14;;;;;;;11.48;7.72;;;;;;;;;;2115164;28;20051;-90
2023/07/01 01:15:15;;;;;;;9.83;7.40;;;;;;;;;;1753273;28;10258751;-91
2023/07/01 01:16:54;;;;;;;9.85;7.15;;;;;;;;;;2113599;28;20142;-90
2023/07/01 01:17:59;;;;;;;8.43;6.97;;;;;;;;;;2104048;28;20420;-89
2023/07/01 01:19:01;;;;;;;7.95;7.15;;;;;;;;;;2114420;28;20026;-88
2023/07/01 01:20:12;;;;;;;8.80;7.45;;;;;;;;;;2114431;28;20546;-88
2023/07/01 01:21:13;;;;;;;;;;;;;;;;;;2105690;28;20024;-88
2023/07/01 01:22:25;;;;;;;9.13;6.95;;;;;;;;;;2105761;28;19912;-88
2023/07/01 01:23:34;;;;;;;11.85;7.45;;;;;;;;;;2113931;28;20065;-88
2023/07/01 01:25:09;;;;;;;8.50;6.68;;;;;;;;;;2113032;28;20073;-88
2023/07/01 01:26:18;;;;;;;8.23;7.07;;;;;;;;;;2109534;28;20477;-87
2023/07/01 01:27:30;;;;;;;8.90;7.28;;;;;;;;;;2113169;28;20023;-87
2023/07/01 01:28:30;;;;;;;8.73;7.28;;;;;;;;;;2113910;28;20019;-88
2023/07/01 01:29:31;;;;;;;8.65;7.72;;;;;;;;;;2113914;28;20076;-88
2023/07/01 01:30:33;;;;;;;7.82;7.05;;;;;;;;;;2113900;27;20023;-88
2023/07/01 01:31:35;;;;;;;7.60;6.90;;;;;;;;;;2121934;27;20104;-88
2023/07/01 01:32:35;;;;;;;8.80;7.90;;;;;;;;;;2122148;27;20030;-88
2023/07/01 01:33:35;;;;;;;9.60;7.38;;;;;;;;;;2113151;28;20058;-87
2023/07/01 01:34:36;;;;;;;9.60;7.10;;;;;;;;;;2121788;27;20023;-88
2023/07/01 01:35:36;;;;;;;8.80;7.88;;;;;;;;;;2122237;27;20135;-88
2023/07/01 01:36:56;;;;;;;10.88;8.35;;;;;;;;;;2124437;27;20027;-86
2023/07/01 01:38:05;;;;;;;9.10;8.20;;;;;;;;;;2121718;27;20027;-88
2023/07/01 01:39:08;;;;;;;8.48;7.55;;;;;;;;;;2121908;27;20030;-88
2023/07/01 01:40:17;;;;;;;8.20;7.38;;;;;;;;;;2122383;27;20080;-89
2023/07/01 01:41:48;;;;;;;9.35;7.25;;;;;;;;;;2122483;27;20019;-88
2023/07/01 01:42:49;;;;;;;8.20;7.28;;;;;;;;;;1768067;27;10002976;-88
2023/07/01 01:44:00;;;;;;;10.77;8.30;;;;;;;;;;2113683;28;20100;-88
2023/07/01 01:45:01;;;;;;;7.95;7.18;;;;;;;;;;2114578;27;20727;-88
2023/07/01 01:46:02;;;;;;;9.00;7.87;;;;;;;;;;1758519;27;10269929;-88
2023/07/01 01:47:04;;;;;;;8.90;7.30;;;;;;;;;;2122482;27;20050;-88
2023/07/01 01:48:05;;;;;;;8.05;6.97;;;;;;;;;;2121670;27;20035;-88
2023/07/01 01:49:15;;;;;;;10.73;7.50;;;;;;;;;;2121736;27;20606;-88
2023/07/01 01:50:19;;;;;;;8.68;7.13;;;;;;;;;;2121849;27;20026;-89
2023/07/01 01:51:22;;;;;;;7.85;7.05;;;;;;;;;;2122163;27;20227;-90
2023/07/01 01:52:23;;;;;;;8.48;7.68;;;;;;;;;;2123350;27;20067;-90
2023/07/01 01:53:27;;;;;;;8.13;7.32;;;;;;;;;;2122388;27;20399;-89
2023/07/01 01:54:28;;;;;;;7.63;6.93;;;;;;;;;;2122094;27;20098;-90
2023/07/01 01:55:30;;;;;;;9.00;8.10;;;;;;;;;;2121763;27;20015;-89
2023/07/01 01:56:31;;;;;;;9.15;7.88;;;;;;;;;;2113544;28;20072;-90
2023/07/01 01:57:32;;;;;;;9.43;8.00;;;;;;;;;;2121910;27;20102;-89
2023/07/01 01:58:33;;;;;;;10.10;8.45;;;;;;;;;;2121546;27;20030;-89
2023/07/01 01:59:34;;;;;;;9.68;7.72;;;;;;;;;;2122102;27;20023;-89
2023/07/01 02:00:35;;;;;;;10.63;7.90;;;;;;;;;;2122074;27;20129;-89
2023/07/01 02:01:35;;;;;;;8.77;7.47;;;;;;;;;;2113271;28;20047;-90
2023/07/01 02:02:36;;;;;;;8.52;7.30;;;;;;;;;;2112722;28;20023;-89
2023/07/01 02:03:37;;;;;;;8.48;7.57;;;;;;;;;;2112065;28;20019;-90
2023/07/01 02:04:39;;;;;;;10.02;7.40;;;;;;;;;;2121724;27;20075;-89
2023/07/01 02:05:40;;;;;;;8.50;7.57;;;;;;;;;;2121608;27;20635;-90
2023/07/01 02:06:43;;;;;;;9.18;8.15;;;;;;;;;;2112844;28;20142;-91
2023/07/01 02:07:43;;;;;;;8.85;7.93;;;;;;;;;;2113338;28;20123;-90
2023/07/01 02:08:46;;;;;;;10.45;7.78;;;;;;;;;;2115421;28;20046;-91
2023/07/01 02:09:46;;;;;;;8.63;7.78;;;;;;;;;;2132216;27;20007;-91
2023/07/01 02:10:47;;;;;;;10.00;8.02;;;;;;;;;;2123685;28;20016;-91
2023/07/01 02:11:47;;;;;;;8.15;7.38;;;;;;;;;;2132130;27;20018;-91
2023/07/01 02:12:48;;;;;;;9.50;8.38;;;;;;;;;;2131695;27;20015;-91
2023/07/01 02:13:49;;;;;;;10.10;7.60;;;;;;;;;;2123034;28;20059;-91
2023/07/01 02:14:49;;;;;;;10.70;7.45;;;;;;;;;;2127252;27;20098;-91
2023/07/01 02:15:49;;;;;;;12.75;8.43;;;;;;;;;;2121899;27;20042;-91
2023/07/01 02:16:50;;;;;;;10.73;8.02;;;;;;;;;;2113352;28;20023;-90
2023/07/01 02:17:52;;;;;;;9.05;7.95;;;;;;;;;;2113305;28;20052;-91
2023/07/01 02:18:53;;;;;;;12.07;7.82;;;;;;;;;;2113280;28;20043;-90
2023/07/01 02:19:54;;;;;;;11.75;7.78;;;;;;;;;;2113063;28;20054;-90
2023/07/01 02:20:55;;;;;;;10.65;8.77;;;;;;;;;;2121725;27;20044;-90
2023/07/01 02:21:55;;;;;;;11.25;7.82;;;;;;;;;;2122797;27;20139;-90
2023/07/01 02:22:56;;;;;;;9.88;7.95;;;;;;;;;;2121706;27;20027;-91
2023/07/01 02:24:00;;;;;;;10.85;7.75;;;;;;;;;;2122247;27;20027;-91
2023/07/01 02:25:00;;;;;;;10.27;8.20;;;;;;;;;;2125447;27;20023;-89
2023/07/01 02:26:00;;;;;;;11.70;8.32;;;;;;;;;;2122502;27;20723;-90
2023/07/01 02:27:01;;;;;;;11.02;7.90;;;;;;;;;;2122052;27;20043;-91
2023/07/01 02:28:01;;;;;;;10.27;7.47;;;;;;;;;;2121566;27;20126;-90
2023/07/01 02:29:02;;;;;;;8.52;7.20;;;;;;;;;;2122321;27;20023;-91
2023/07/01 02:30:03;;;;;;;11.30;7.75;;;;;;;;;;2121465;27;20030;-90
2023/07/01 02:31:03;;;;;;;10.13;7.95;;;;;;;;;;2107161;28;20104;-90
2023/07/01 02:32:04;;;;;;;11.23;8.93;;;;;;;;;;2112927;28;20435;-90
2023/07/01 02:33:04;;;;;;;10.90;7.88;;;;;;;;;;2112785;28;20051;-89
2023/07/01 02:34:05;;;;;;;9.73;8.40;;;;;;;;;;1739642;28;10389619;-90
2023/07/01 02:35:06;;;;;;;15.25;8.02;;;;;;;;;;2104140;28;20383;-90
2023/07/01 02:36:06;;;;;;;12.30;7.93;;;;;;;;;;2112949;28;20034;-90
2023/07/01 02:37:07;;;;;;;12.07;7.97;;;;;;;;;;2109869;28;20063;-90
2023/07/01 02:38:08;;;;;;;11.38;8.60;;;;;;;;;;2113037;28;20486;-90
2023/07/01 02:39:11;;;;;;;9.75;8.02;;;;;;;;;;2113020;28;20016;-90
2023/07/01 02:40:11;;;;;;;10.95;8.25;;;;;;;;;;2113002;28;20153;-90
2023/07/01 02:41:11;;;;;;;11.20;8.05;;;;;;;;;;2113202;28;20505;-90
2023/07/01 02:42:15;;;;;;;8.70;7.80;;;;;;;;;;2113167;28;20470;-91
2023/07/01 02:43:16;;;;;;;12.10;7.40;;;;;;;;;;2113298;28;20092;-90
2023/07/01 02:44:16;;;;;;;11.27;7.50;;;;;;;;;;2104452;28;20027;-91
2023/07/01 02:45:17;;;;;;;10.07;8.13;;;;;;;;;;2104206;28;20096;-90
2023/07/01 02:46:19;;;;;;;12.15;8.13;;;;;;;;;;2104595;28;20016;-90
2023/07/01 02:47:32;;;;;;;9.35;7.57;;;;;;;;;;2116138;28;20103;-88
2023/07/01 02:48:33;;;;;;;10.68;7.60;;;;;;;;;;2096320;28;20503;-91
2023/07/01 02:49:33;;;;;;;10.48;8.18;;;;;;;;;;2104943;28;20028;-90
2023/07/01 02:51:08;;;;;;;9.50;7.35;;;;;;;;;;2122399;28;20021;-90
2023/07/01 02:52:17;;;;;;;8.73;7.45;;;;;;;;;;2113393;28;20191;-90
2023/07/01 02:53:20;;;;;;;12.82;7.90;;;;;;;;;;2113874;28;20123;-90
2023/07/01 02:54:21;;;;;;;11.15;7.53;;;;;;;;;;2113544;28;20102;-91
2023/07/01 02:55:21;;;;;;;9.73;7.75;;;;;;;;;;2113198;28;20016;-91
2023/07/01 02:56:22;;;;;;;9.02;7.47;;;;;;;;;;2113320;28;20331;-91
2023/07/01 02:57:22;;;;;;;8.82;7.93;;;;;;;;;;2104615;28;20020;-91
2023/07/01 02:58:23;;;;;;;9.13;7.28;;;;;;;;;;2113318;28;20051;-91
2023/07/01 02:59:23;;;;;;;9.35;7.30;;;;;;;;;;2113182;28;20054;-90
2023/07/01 03:00:24;;;;;;;9.52;7.43;;;;;;;;;;2113820;28;20047;-91
2023/07/01 03:01:24;;;;;;;10.18;7.38;;;;;;;;;;2113818;28;20521;-90
2023/07/01 03:02:27;;;;;;;8.57;7.40;;;;;;;;;;2113155;28;20511;-91
2023/07/01 03:03:27;;;;;;;9.52;7.28;;;;;;;;;;2105312;28;20448;-91
2023/07/01 03:04:28;;;;;;;8.25;7.45;;;;;;;;;;2104746;28;20154;-91
2023/07/01 03:05:28;;;;;;;9.48;7.22;;;;;;;;;;2105165;28;20024;-91
2023/07/01 03:06:28;;;;;;;8.55;7.45;;;;;;;;;;2114570;28;20527;-91
2023/07/01 03:07:29;;;;;;;9.18;8.27;;;;;;;;;;2115461;28;20015;-91
2023/07/01 03:08:31;;;;;;;8.10;7.38;;;;;;;;;;2107198;28;20050;-90
2023/07/01 03:09:31;;;;;;;9.80;7.40;;;;;;;;;;2114583;28;20408;-91
2023/07/01 03:10:34;;;;;;;8.15;7.28;;;;;;;;;;2114604;28;20066;-91
2023/07/01 03:11:35;;;;;;;8.38;7.53;;;;;;;;;;2106869;28;20098;-90
2023/07/01 03:12:38;;;;;;;10.88;8.15;;;;;;;;;;2115955;28;20084;-88
2023/07/01 03:13:39;;;;;;;9.73;8.15;;;;;;;;;;2118200;28;20080;-90
2023/07/01 03:15:10;;;;;;;9.55;7.55;;;;;;;;;;2114845;28;20076;-90
2023/07/01 03:16:10;;;;;;;8.48;7.57;;;;;;;;;;2114678;28;20008;-90
2023/07/01 03:17:11;;;;;;;8.60;7.50;;;;;;;;;;2106306;28;20399;-90
2023/07/01 03:18:14;;;;;;;11.90;7.45;;;;;;;;;;2114553;28;20102;-91
2023/07/01 03:19:14;;;;;;;8.98;7.55;;;;;;;;;;2115197;28;20530;-91
2023/07/01 03:20:24;;;;;;;10.15;7.28;;;;;;;;;;2114530;28;20023;-90
2023/07/01 03:21:27;;;;;;;10.90;8.52;;;;;;;;;;2107241;28;20460;-91
2023/07/01 03:22:27;;;;;;;8.68;7.88;;;;;;;;;;2106284;28;20012;-91
2023/07/01 03:23:29;;;;;;;10.35;7.75;;;;;;;;;;2114659;28;20023;-91
2023/07/01 03:24:33;;;;;;;9.05;7.80;;;;;;;;;;2115189;28;20029;-91
2023/07/01 03:25:35;;;;;;;10.02;7.35;;;;;;;;;;2114350;28;20027;-92
2023/07/01 03:26:36;;;;;;;8.35;7.05;;;;;;;;;;2114570;28;20134;-90
2023/07/01 03:27:37;;;;;;;11.75;7.47;;;;;;;;;;2114339;28;20070;-90
2023/07/01 03:28:37;;;;;;;9.85;6.97;;;;;;;;;;2114560;28;20028;-90
2023/07/01 03:29:38;;;;;;;9.32;7.50;;;;;;;;;;2114197;28;20172;-90
2023/07/01 03:31:11;;;;;;;9.32;7.90;;;;;;;;;;2106020;28;20023;-90
2023/07/01 03:32:12;;;;;;;8.13;7.13;;;;;;;;;;2114604;28;20032;-91
2023/07/01 03:33:12;;;;;;;10.80;7.97;;;;;;;;;;2115393;28;20019;-91
2023/07/01 03:34:15;;;;;;;9.52;7.32;;;;;;;;;;2114562;28;20040;-93
2023/07/01 03:35:16;;;;;;;8.80;7.93;;;;;;;;;;2106505;28;20039;-91
2023/07/01 03:36:19;;;;;;;8.35;7.55;;;;;;;;;;2105934;28;20053;-91
2023/07/01 03:43:07;;;;;;;9.75;7.50;;;;;;;;;;2084365;28;20056;-91
2023/07/01 03:44:08;;;;;;;10.60;7.90;;;;;;;;;;2118212;27;20074;-90
2023/07/01 03:45:10;;;;;;;10.65;8.23;;;;;;;;;;2118152;27;20040;-91
2023/07/01 03:46:13;;;;;;;9.57;8.13;;;;;;;;;;2114174;28;20023;-91
2023/07/01 03:47:14;;;;;;;9.73;8.70;;;;;;;;;;2114373;28;20422;-92
2023/07/01 03:49:02;;;;;;;11.07;7.97;;;;;;;;;;2119446;27;20023;-89
2023/07/01 03:50:03;;;;;;;9.60;8.00;;;;;;;;;;2120795;27;20506;-90
2023/07/01 03:51:03;;;;;;;11.50;8.52;;;;;;;;;;2114007;28;20085;-90
2023/07/01 03:52:04;;;;;;;12.95;8.02;;;;;;;;;;2122600;27;20031;-91
2023/07/01 03:53:05;;;;;;;10.32;8.57;;;;;;;;;;2123371;27;20054;-91
2023/07/01 03:54:08;;;;;;;8.32;7.53;;;;;;;;;;2122504;27;20027;-89
2023/07/01 03:55:14;;;;;;;9.07;7.45;;;;;;;;;;2122674;27;20106;-89
2023/07/01 03:56:14;;;;;;;9.18;7.30;;;;;;;;;;2114852;27;20016;-90
2023/07/01 03:57:15;;;;;;;10.68;8.15;;;;;;;;;;2122930;27;20015;-90
2023/07/01 03:58:24;;;;;;;8.70;7.80;;;;;;;;;;2123233;27;20648;-90
2023/07/01 03:59:26;;;;;;;11.02;7.75;;;;;;;;;;2122568;27;20544;-92
2023/07/01 04:00:27;;;;;;;11.77;8.65;;;;;;;;;;2114939;27;20016;-90
2023/07/01 04:01:28;;;;;;;9.30;7.35;;;;;;;;;;2117688;28;20015;-89
2023/07/01 04:02:51;;;;;;;9.18;8.27;;;;;;;;;;2119197;27;20431;-90
2023/07/01 04:04:39;;;;;;;8.50;7.55;;;;;;;;;;2122823;27;20030;-91
2023/07/01 04:05:39;;;;;;;9.32;8.18;;;;;;;;;;2080107;28;20075;-91
2023/07/01 04:06:41;;;;;;;9.30;8.40;;;;;;;;;;2080262;28;20048;-91
2023/07/01 04:07:42;;;;;;;8.80;7.90;;;;;;;;;;2090897;28;20037;-90
2023/07/01 04:08:43;;;;;;;9.95;8.00;;;;;;;;;;2115119;28;20654;-91
2023/07/01 04:09:43;;;;;;;11.35;8.25;;;;;;;;;;2113855;28;20035;-91
2023/07/01 04:10:44;;;;;;;11.35;8.55;;;;;;;;;;2105971;28;20118;-90
2023/07/01 04:11:47;;;;;;;11.73;8.35;;;;;;;;;;2122670;27;20043;-90
2023/07/01 04:12:47;;;;;;;10.30;8.02;;;;;;;;;;2115037;28;20050;-89
2023/07/01 04:13:48;;;;;;;8.98;7.35;;;;;;;;;;2116808;27;20055;-89
2023/07/01 04:14:48;;;;;;;8.88;7.97;;;;;;;;;;2123364;27;20033;-90
2023/07/01 04:15:49;;;;;;;11.55;8.73;;;;;;;;;;2122582;27;20015;-89
2023/07/01 04:16:50;;;;;;;9.82;8.70;;;;;;;;;;2122526;27;20019;-89
2023/07/01 04:17:52;;;;;;;9.65;7.72;;;;;;;;;;2111459;28;20027;-89
2023/07/01 04:19:17;;;;;;;8.25;7.35;;;;;;;;;;2122469;27;20118;-91
2023/07/01 04:20:19;;;;;;;8.35;7.40;;;;;;;;;;2114008;28;20398;-91
2023/07/01 04:21:21;;;;;;;10.60;7.57;;;;;;;;;;2105802;28;20090;-91
2023/07/01 04:22:42;;;;;;;10.85;8.20;;;;;;;;;;2114060;28;20031;-90
2023/07/01 04:25:22;;;;;;;10.32;7.57;;;;;;;;;;2115056;28;20623;-90
2023/07/01 04:26:26;;;;;;;8.60;7.47;;;;;;;;;;2114941;28;20050;-91
2023/07/01 04:27:43;;;;;;;9.02;8.02;;;;;;;;;;2106520;28;20059;-92
2023/07/01 04:29:04;;;;;;;8.23;7.32;;;;;;;;;;2115000;28;20651;-92
2023/07/01 04:30:08;;;;;;;11.68;8.05;;;;;;;;;;2115081;28;20047;-91
2023/07/01 04:31:08;;;;;;;9.35;7.28;;;;;;;;;;2123553;27;20083;-93
2023/07/01 04:32:09;;;;;;;8.93;6.95;;;;;;;;;;2118499;27;20039;-92
2023/07/01 04:33:12;;;;;;;10.38;7.50;;;;;;;;;;2115147;28;20410;-92
2023/07/01 04:34:12;;;;;;;9.48;6.75;;;;;;;;;;2114620;28;20027;-92
2023/07/01 04:35:17;;;;;;;7.93;6.97;;;;;;;;;;2106047;28;20135;-91
2023/07/01 04:36:18;;;;;;;7.40;6.38;;;;;;;;;;2114148;28;20427;-92
2023/07/01 04:37:18;;;;;;;6.50;5.90;;;;;;;;;;2114574;28;20107;-91
2023/07/01 04:38:21;;;;;;;6.72;5.90;;;;;;;;;;2115034;28;20379;-92
2023/07/01 04:39:25;;;;;;;8.45;5.95;;;;;;;;;;2121107;27;20266;-92
2023/07/01 04:40:25;;;;;;;7.25;5.72;;;;;;;;;;1760603;27;10450657;-94
2023/07/01 04:41:51;;;;;;;10.45;5.80;;;;;;;;;;2132781;27;20078;-94
2023/07/01 04:42:52;;;;;;;5.20;4.70;;;;;;;;;;2133596;27;20040;-93
2023/07/01 04:43:52;;;;;;;5.20;4.80;;;;;;;;;;2132518;27;20072;-93
2023/07/01 04:44:55;;;;;;;6.70;5.15;;;;;;;;;;2117253;28;20504;-93
2023/07/01 04:45:58;;;;;;;6.53;5.10;;;;;;;;;;2113063;28;20031;-91
2023/07/01 04:47:01;;;;;;;6.72;4.72;;;;;;;;;;2105863;28;20036;-92
2023/07/01 04:49:39;;;;;;;5.60;4.72;;;;;;;;;;2127630;27;20130;-90
2023/07/01 04:50:39;;;;;;;5.05;4.55;;;;;;;;;;2122208;27;20084;-93
2023/07/01 04:53:28;;;;;;;4.93;4.43;;;;;;;;;;2106770;28;20028;-92
2023/07/01 04:54:29;;;;;;;5.70;4.50;;;;;;;;;;2117203;27;20503;-92
2023/07/01 04:55:31;;;;;;;4.65;4.25;;;;;;;;;;2122395;27;20097;-90
2023/07/01 04:56:44;;;;;;;5.25;4.75;;;;;;;;;;2122143;27;20466;-92
2023/07/01 04:57:45;;;;;;;5.68;5.10;;;;;;;;;;2121223;27;20433;-92
2023/07/01 04:58:45;;;;;;;5.10;4.60;;;;;;;;;;2121546;27;20023;-91
2023/07/01 04:59:46;;;;;;;5.43;4.63;;;;;;;;;;2122070;27;20062;-92
2023/07/01 05:00:46;;;;;;;5.75;4.93;;;;;;;;;;2122825;27;20023;-91
2023/07/01 05:01:47;;;;;;;5.38;4.80;;;;;;;;;;2122527;27;20538;-92
2023/07/01 05:02:56;;;;;;;5.35;4.90;;;;;;;;;;2122072;27;20060;-93
2023/07/01 05:03:56;;;;;;;5.30;4.80;;;;;;;;;;2114954;27;20119;-92
2023/07/01 05:05:20;;;;;;;5.20;4.70;;;;;;;;;;2121455;27;20027;-93
2023/07/01 05:06:23;;;;;;;4.68;4.28;;;;;;;;;;2122270;27;20034;-90
2023/07/01 05:07:24;;;;;;;4.88;4.47;;;;;;;;;;2120883;27;20433;-90
2023/07/01 05:08:24;;;;;;;4.63;4.20;;;;;;;;;;2112339;28;20019;-91
2023/07/01 05:09:25;;;;;;;5.45;4.43;;;;;;;;;;2112224;28;20050;-90
2023/07/01 05:10:25;;;;;;;5.80;4.43;;;;;;;;;;2119413;27;20019;-89
2023/07/01 05:11:28;;;;;;;6.85;4.25;;;;;;;;;;2118983;27;20103;-89
2023/07/01 05:12:29;;;;;;;4.95;4.53;;;;;;;;;;2111420;28;20130;-90
2023/07/01 05:13:32;;;;;;;4.57;4.15;;;;;;;;;;2121135;27;20045;-91
2023/07/01 05:14:32;;;;;;;8.32;4.13;;;;;;;;;;2115891;27;20088;-89
2023/07/01 05:15:33;;;;;;;4.93;3.92;;;;;;;;;;2116442;27;20015;-91
2023/07/01 05:16:33;;;;;;;4.30;3.83;;;;;;;;;;2121883;27;20395;-92
2023/07/01 05:17:34;;;;;;;4.70;4.30;;;;;;;;;;2121413;27;20120;-91
2023/07/01 05:18:34;;;;;;;4.15;3.85;;;;;;;;;;2112730;28;20110;-91
2023/07/01 05:19:34;;;;;;;3.90;3.60;;;;;;;;;;2112668;28;20032;-93
2023/07/01 05:20:35;;;;;;;5.10;4.20;;;;;;;;;;2111191;28;20043;-93
2023/07/01 05:21:36;;;;;;;4.15;3.75;;;;;;;;;;2115468;27;20036;-91
2023/07/01 05:22:37;;;;;;;5.50;3.97;;;;;;;;;;2123451;27;20016;-93
2023/07/01 05:23:37;;;;;;;4.53;4.00;;;;;;;;;;2121936;27;20055;-94
2023/07/01 05:24:38;;;;;;;4.38;3.97;;;;;;;;;;2120740;27;20027;-92
2023/07/01 05:25:39;;;;;;;5.30;4.10;;;;;;;;;;2122037;27;20419;-92
2023/07/01 05:26:44;;;;;;;3.97;3.50;;;;;;;;;;2121454;27;20077;-92
2023/07/01 05:27:44;;;;;;;6.50;3.90;;;;;;;;;;2121533;27;20117;-90
2023/07/01 05:28:45;;;;;;;5.43;4.30;;;;;;;;;;2121758;27;20019;-93
2023/07/01 05:30:01;;;;;;;4.63;4.20;;;;;;;;;;2121718;27;20482;-92
2023/07/01 05:31:07;;;;;;;4.47;4.07;;;;;;;;;;2121047;27;20029;-91
2023/07/01 05:32:07;;;;;;;5.03;4.53;;;;;;;;;;2121159;27;20026;-92
2023/07/01 05:33:10;;;;;;;5.90;4.68;;;;;;;;;;2121707;27;20501;-91
2023/07/01 05:34:13;;;;;;;4.80;4.40;;;;;;;;;;2121443;27;20506;-92
2023/07/01 05:35:13;;;;;;;5.53;5.03;;;;;;;;;;2121564;27;20218;-92
2023/07/01 05:36:14;;;;;;;4.75;4.35;;;;;;;;;;2114278;27;20475;-92
2023/07/01 05:37:14;;;;;;;6.20;4.78;;;;;;;;;;2115532;28;20117;-91
2023/07/01 05:38:25;;;;;;;4.43;4.03;;;;;;;;;;2117496;28;20031;-95
2023/07/01 05:39:28;;;;;;;4.95;4.35;;;;;;;;;;2114027;28;20045;-90
2023/07/01 05:40:29;;;;;;;4.95;4.47;;;;;;;;;;2113811;28;20027;-93
2023/07/01 05:41:32;;;;;;;4.82;4.43;;;;;;;;;;2113181;28;20432;-91
2023/07/01 05:42:32;;;;;;;5.72;4.43;;;;;;;;;;2105057;28;20063;-89
2023/07/01 05:43:33;;;;;;;5.07;4.57;;;;;;;;;;2104947;28;20104;-91
2023/07/01 05:44:35;;;;;;;5.50;4.63;;;;;;;;;;2104718;28;20032;-91
2023/07/01 05:45:38;;;;;;;6.07;4.22;;;;;;;;;;2104763;28;20348;-91
2023/07/01 05:46:40;;;;;;;4.85;4.45;;;;;;;;;;2113347;28;20028;-91
2023/07/01 05:47:42;;;;;;;4.65;4.18;;;;;;;;;;2113752;28;20020;-90
2023/07/01 05:48:43;;;;;;;4.72;4.32;;;;;;;;;;2113680;27;20089;-90
2023/07/01 05:49:48;;;;;;;5.05;4.65;;;;;;;;;;2113643;28;20499;-89
2023/07/01 05:50:49;;;;;;;8.45;5.05;;;;;;;;;;2113656;28;20415;-90
2023/07/01 05:52:00;;;;;;;4.55;4.20;;;;;;;;;;2113944;28;20027;-90
2023/07/01 05:53:01;;;;;;;4.38;3.97;;;;;;;;;;2113401;27;20019;-91
2023/07/01 05:54:05;;;;;;;4.88;4.47;;;;;;;;;;2113331;28;20023;-90
2023/07/01 05:55:06;;;;;;;6.28;4.68;;;;;;;;;;2113035;28;20016;-90
2023/07/01 05:56:14;;;;;;;5.05;4.55;;;;;;;;;;2105156;28;20097;-92
2023/07/01 05:57:14;;;;;;;7.05;4.07;;;;;;;;;;2105668;28;20032;-91
2023/07/01 05:58:15;;;;;;;6.03;4.53;;;;;;;;;;2113576;28;20058;-91
2023/07/01 05:59:15;;;;;;;4.72;4.32;;;;;;;;;;2114048;28;20061;-91
2023/07/01 06:00:18;;;;;;;4.55;4.15;;;;;;;;;;2113272;28;20023;-91
2023/07/01 06:01:19;;;;;;;4.65;4.30;;;;;;;;;;2105435;28;20104;-92
2023/07/01 06:02:19;;;;;;;5.45;4.78;;;;;;;;;;2113424;28;20508;-93
2023/07/01 06:03:25;;;;;;;7.32;5.18;;;;;;;;;;2113162;28;20011;-91
2023/07/01 06:04:29;;;;;;;5.18;4.78;;;;;;;;;;2111811;28;20024;-92
2023/07/01 06:05:32;;;;;;;7.97;5.40;;;;;;;;;;2112103;28;20008;-90
2023/07/01 06:06:34;;;;;;;4.88;4.38;;;;;;;;;;2111798;28;20142;-90
2023/07/01 06:07:35;;;;;;;5.90;5.30;;;;;;;;;;2111901;28;20032;-92
2023/07/01 06:08:35;;;;;;;5.30;4.80;;;;;;;;;;2111862;28;20118;-91
2023/07/01 06:09:48;;;;;;;5.70;5.20;;;;;;;;;;2112170;28;20023;-91
2023/07/01 06:10:52;;;;;;;6.38;5.65;;;;;;;;;;2111905;28;20103;-90
2023/07/01 06:12:08;;;;;;;;;;;;;;;;;;;;;
2023/07/01 06:17:04;;;;;;;5.22;4.78;;;;;;;;;;2111329;28;20135;-91
2023/07/01 06:18:17;;;;;;;;;;;;;;;;;;;;;
2023/07/01 06:19:17;;;;;;;5.68;5.25;;;;;;;;;;2112259;27;20020;-88
2023/07/01 06:20:32;;;;;;;6.10;5.50;;;;;;;;;;2114053;28;20451;-92
2023/07/01 06:21:33;;;;;;;7.45;5.57;;;;;;;;;;2114528;28;20560;-92
2023/07/01 06:30:57;;;;;;;4.32;3.53;;;;;;;;;;2089204;28;20029;-93
2023/07/01 06:31:58;;;;;;;4.43;3.45;;;;;;;;;;2080300;28;20422;-92
2023/07/01 06:33:48;;;;;;;3.45;3.15;;;;;;;;;;2098596;28;20127;-93
2023/07/01 06:34:48;;;;;;;3.78;3.40;;;;;;;;;;2110935;28;20111;-93
2023/07/01 06:35:51;;;;;;;3.83;3.42;;;;;;;;;;2114330;28;20087;-93
2023/07/01 06:36:52;;;;;;;3.40;3.20;;;;;;;;;;2113608;28;20032;-93
2023/07/01 06:37:55;;;;;;;5.15;4.75;;;;;;;;;;2113922;28;20047;-93
2023/07/01 06:38:59;;;;;;;3.85;3.55;;;;;;;;;;2114545;28;20118;-92
2023/07/01 06:48:35;;;;;;;3.92;3.53;;;;;;;;;;2349871;23;20038;-94
2023/07/01 06:59:57;;;;;;;4.82;4.30;;;;;;;;;;2055721;28;20466;-93
2023/07/01 07:19:11;;;;;;;7.22;4.10;;;;;;;;;;2070769;28;20113;-95
2023/07/01 07:20:21;;;;;;;4.88;4.20;;;;;;;;;;2072309;28;20089;-94
2023/07/01 07:21:31;;;;;;;;;;;;;;;;;;;;;
2023/07/01 07:22:32;;;;;;;5.57;4.22;;;;;;;;;;2074302;28;20030;-93
2023/07/01 07:23:47;;;;;;;4.68;4.28;;;;;;;;;;2073160;28;20034;-94
2023/07/01 07:24:47;;;;;;;4.63;4.22;;;;;;;;;;2072617;28;20048;-94
2023/07/01 07:26:01;;;;;;;4.70;4.38;;;;;;;;;;2072355;28;20032;-93
2023/07/01 07:32:06;;;;;;;4.97;4.57;;;;;;;;;;1817545;26;20146;-92